Time;durP1;ratioP1;P1;durP2;ratioP2;P2;SDS_P1;SDS_P2;PMS_P1;PMS_P2;Temp;Humidity;BMP_temperature;BMP_pressure;BME280_temperature;BME280_humidity;BME280_pressure;Samples;Min_cycle;Max_cycle;Signal;HPM_P1;HPM_P2
2022/06/07 00:02:39;;;;;;;3.83;2.45;;;;;;;15.59;64.18;99775.19;5034143;28;20060;-55
2022/06/07 00:05:24;;;;;;;7.57;2.70;;;;;;;15.59;64.21;99784.78;5034880;28;20044;-55
2022/06/07 00:08:12;;;;;;;5.35;2.53;;;;;;;15.57;63.89;99776.09;5034696;28;20072;-54
2022/06/07 00:10:56;;;;;;;7.10;2.85;;;;;;;15.56;64.06;99775.22;5034151;28;20576;-55
2022/06/07 00:13:40;;;;;;;6.22;2.63;;;;;;;15.55;64.08;99777.84;5034459;28;20053;-55
2022/06/07 00:16:26;;;;;;;4.07;2.30;;;;;;;15.54;64.18;99774.38;5034153;28;20048;-55
2022/06/07 00:19:13;;;;;;;5.82;2.72;;;;;;;15.52;64.20;99773.53;5033936;28;20099;-55
2022/06/07 00:21:57;;;;;;;6.82;2.53;;;;;;;15.51;64.32;99769.19;5033166;28;20048;-55
2022/06/07 00:24:43;;;;;;;4.82;3.13;;;;;;;15.48;64.09;99772.69;5034341;28;20068;-55
2022/06/07 00:29:52;;;;;;;4.18;2.30;;;;;;;15.47;64.20;99775.28;5152088;27;20931;-55
2022/06/07 00:32:36;;;;;;;6.07;3.08;;;;;;;15.47;64.19;99770.06;5152542;27;20050;-55
2022/06/07 00:35:21;;;;;;;3.67;2.17;;;;;;;15.47;64.26;99772.69;5152406;27;20414;-55
2022/06/07 00:38:05;;;;;;;5.38;2.60;;;;;;;15.46;64.27;99757.88;5152765;27;20446;-54
2022/06/07 00:40:49;;;;;;;;;;;;;;;15.46;64.04;99763.13;5152764;27;20050;-55
2022/06/07 00:43:33;;;;;;;2.90;2.33;;;;;;;15.47;64.24;99762.25;5152182;27;19922;-55
2022/06/07 00:46:21;;;;;;;3.80;2.38;;;;;;;15.47;64.27;99762.25;5152297;27;20064;-55
2022/06/07 00:49:05;;;;;;;4.00;2.60;;;;;;;15.47;64.29;99763.13;5136375;27;20050;-55
2022/06/07 00:51:49;;;;;;;4.15;2.45;;;;;;;15.47;64.36;99762.25;5152011;27;20044;-55
2022/06/07 00:54:34;;;;;;;5.13;2.55;;;;;;;15.46;64.36;99758.78;5151949;27;20095;-55
2022/06/07 00:57:18;;;;;;;5.00;2.72;;;;;;;15.45;64.02;99762.25;5136293;27;20053;-55
2022/06/07 01:00:05;;;;;;;3.40;2.10;;;;;;;15.46;64.17;99757.88;5151723;27;20175;-55
2022/06/07 01:02:51;;;;;;;4.40;2.28;;;;;;;15.44;64.24;99746.59;5136619;27;20543;-55
2022/06/07 01:05:37;;;;;;;13.18;3.03;;;;;;;15.42;64.18;99754.44;5151491;27;20463;-55
2022/06/07 01:12:55;;;;;;;3.67;2.30;;;;;;;15.37;64.33;99746.66;5111572;27;20426;-55
2022/06/07 01:15:42;;;;;;;7.80;2.85;;;;;;;15.37;64.22;99743.16;5111189;28;20051;-54
2022/06/07 01:18:31;;;;;;;4.18;2.30;;;;;;;15.35;64.26;99743.19;5111451;28;20039;-55
2022/06/07 01:21:28;;;;;;;6.00;2.60;;;;;;;15.36;64.24;99738.81;5111108;28;20047;-55
2022/06/07 01:24:16;;;;;;;4.43;2.75;;;;;;;15.37;64.20;99740.56;5109996;28;20067;-55
2022/06/07 01:26:59;;;;;;;7.10;2.45;;;;;;;15.36;64.15;99738.81;5110333;28;20050;-55
2022/06/07 01:29:43;;;;;;;5.55;2.45;;;;;;;15.32;64.28;99730.16;5110926;28;20074;-55
2022/06/07 01:32:27;;;;;;;7.72;2.65;;;;;;;15.31;64.39;99732.78;5110979;28;20537;-58
2022/06/07 01:35:11;;;;;;;4.35;2.50;;;;;;;15.31;64.39;99732.78;5110892;28;20047;-54
2022/06/07 01:37:55;;;;;;;5.88;2.38;;;;;;;15.30;64.20;99725.84;5111027;28;20047;-55
2022/06/07 01:43:44;;;;;;;3.90;2.40;;;;;;;15.28;64.21;99723.22;5110363;28;20089;-55
2022/06/07 01:46:31;;;;;;;3.72;2.60;;;;;;;15.26;64.27;99721.50;5110997;28;20101;-56
2022/06/07 01:49:16;;;;;;;6.80;2.88;;;;;;;15.27;64.21;99724.09;5110722;28;20050;-55
2022/06/07 01:52:01;;;;;;;6.82;2.85;;;;;;;15.25;64.32;99718.06;5109795;28;20100;-55
2022/06/07 01:54:45;;;;;;;4.47;2.25;;;;;;;15.23;64.29;99714.59;5110710;28;20122;-55
2022/06/07 01:57:29;;;;;;;;;;;;;;;15.22;64.19;99711.09;5111301;28;20039;-55
2022/06/07 02:00:14;;;;;;;4.53;2.30;;;;;;;15.21;64.41;99711.97;5110318;28;19919;-55
2022/06/07 02:02:57;;;;;;;;;;;;;;;15.20;64.02;99712.00;5110830;28;20082;-55
2022/06/07 02:05:41;;;;;;;3.88;2.35;;;;;;;15.18;64.41;99709.38;5110360;28;19981;-55
2022/06/07 02:08:28;;;;;;;5.90;3.05;;;;;;;15.19;64.36;99712.88;5110649;28;20035;-55
2022/06/07 02:11:15;;;;;;;4.47;2.35;;;;;;;15.18;64.30;99709.38;5109218;28;20136;-55
2022/06/07 02:13:59;;;;;;;3.60;2.60;;;;;;;15.18;64.49;99705.91;5109183;28;20047;-55
2022/06/07 02:16:45;;;;;;;5.93;2.50;;;;;;;15.18;64.26;99703.31;5110033;28;20078;-55
2022/06/07 02:19:29;;;;;;;7.05;2.50;;;;;;;15.16;64.26;99705.94;5110254;28;20089;-54
2022/06/07 02:22:13;;;;;;;3.33;2.08;;;;;;;15.16;64.41;99703.34;5108036;28;20121;-54
2022/06/07 02:24:57;;;;;;;6.25;2.88;;;;;;;15.18;64.19;99700.69;5096023;28;20118;-54
2022/06/07 02:27:44;;;;;;;4.53;2.28;;;;;;;15.15;64.29;99701.59;5096321;28;20055;-54
2022/06/07 02:30:28;;;;;;;3.40;2.42;;;;;;;15.15;64.29;99703.31;5095537;28;20055;-56
2022/06/07 02:33:13;;;;;;;6.53;2.20;;;;;;;15.14;64.21;99702.47;5096302;28;20092;-57
2022/06/07 02:36:00;;;;;;;3.33;2.58;;;;;;;15.14;64.14;99693.75;5095524;28;20058;-56
2022/06/07 02:38:47;;;;;;;3.10;2.30;;;;;;;15.14;64.27;99698.97;5095595;28;20051;-55
2022/06/07 02:41:34;;;;;;;5.47;2.38;;;;;;;15.12;64.21;99699.00;5095711;28;20142;-55
2022/06/07 02:44:18;;;;;;;3.47;1.92;;;;;;;15.14;64.28;99697.25;5095273;28;20063;-55
2022/06/07 02:47:03;;;;;;;3.88;2.53;;;;;;;15.15;64.29;99695.50;5096414;28;20038;-55
2022/06/07 02:49:47;;;;;;;;;;;;;;;15.12;64.15;99696.41;5096724;28;20526;-55
2022/06/07 02:52:31;;;;;;;5.13;2.40;;;;;;;15.14;64.29;99696.38;5095872;28;19923;-54
2022/06/07 02:55:16;;;;;;;;;;;;;;;15.12;64.29;99690.28;5096384;28;20414;-54
2022/06/07 02:58:02;;;;;;;6.40;2.55;;;;;;;15.12;64.47;99688.56;5095262;28;19919;-55
2022/06/07 03:00:47;;;;;;;5.50;2.47;;;;;;;15.12;64.32;99693.78;5094854;28;20047;-55
2022/06/07 03:03:31;;;;;;;8.65;2.60;;;;;;;15.12;64.30;99691.19;5095453;28;20097;-55
2022/06/07 03:06:22;;;;;;;6.93;2.40;;;;;;;15.13;64.37;99695.53;5095523;28;20046;-55
2022/06/07 03:09:06;;;;;;;5.18;2.33;;;;;;;15.12;64.49;99690.28;5094690;28;20038;-55
2022/06/07 03:11:50;;;;;;;5.78;2.65;;;;;;;15.11;64.43;99697.28;5093965;28;20081;-55
2022/06/07 03:14:34;;;;;;;3.88;2.17;;;;;;;15.12;64.39;99693.78;5095562;28;20426;-54
2022/06/07 03:17:21;;;;;;;5.78;2.55;;;;;;;15.12;64.18;99695.50;5095263;28;20043;-55
2022/06/07 03:20:08;;;;;;;4.60;2.45;;;;;;;15.11;64.37;99694.66;5095284;28;20423;-55
2022/06/07 03:22:52;;;;;;;4.47;2.50;;;;;;;15.10;64.44;99687.72;5095487;28;20050;-55
2022/06/07 03:25:42;;;;;;;4.13;2.40;;;;;;;15.11;64.25;99696.38;5095535;28;20051;-55
2022/06/07 03:28:26;;;;;;;3.33;2.10;;;;;;;15.10;64.39;99699.91;5095129;28;20109;-55
2022/06/07 03:31:14;;;;;;;4.47;2.55;;;;;;;15.09;64.50;99685.97;5095255;28;20050;-55
2022/06/07 03:33:58;;;;;;;4.25;2.33;;;;;;;15.10;64.36;99686.84;5093701;28;20051;-56
2022/06/07 03:36:42;;;;;;;4.25;2.05;;;;;;;15.10;64.22;99694.69;5095119;28;20047;-55
2022/06/07 03:39:27;;;;;;;3.95;2.42;;;;;;;15.11;64.28;99697.28;5079964;28;20047;-55
2022/06/07 03:42:12;;;;;;;3.78;2.50;;;;;;;15.10;64.39;99708.59;5093801;28;20136;-55
2022/06/07 03:44:58;;;;;;;3.00;1.80;;;;;;;15.10;64.17;99707.75;5094482;28;20070;-55
2022/06/07 03:47:45;;;;;;;5.05;2.40;;;;;;;15.10;64.20;99699.91;5094407;28;20047;-55
2022/06/07 03:50:30;;;;;;;5.75;2.35;;;;;;;15.08;64.30;99707.72;5093626;28;20051;-55
2022/06/07 03:53:14;;;;;;;3.80;2.42;;;;;;;15.09;64.47;99708.63;5094321;28;20082;-55
2022/06/07 03:55:58;;;;;;;5.65;2.42;;;;;;;15.06;64.42;99702.53;5094512;28;20145;-55
2022/06/07 03:58:43;;;;;;;5.20;2.42;;;;;;;15.07;64.42;99708.59;5093219;28;20047;-55
2022/06/07 04:01:28;;;;;;;4.85;2.30;;;;;;;15.07;64.77;99706.00;5093889;28;20090;-55
2022/06/07 04:04:14;;;;;;;6.85;2.40;;;;;;;15.09;64.56;99708.63;5093828;28;20051;-54
2022/06/07 04:08:36;;;;;;;3.88;2.15;;;;;;;15.06;64.68;99704.25;5111223;27;20273;-54
2022/06/07 04:11:23;;;;;;;4.57;2.38;;;;;;;15.08;64.59;99710.34;5110264;28;20050;-55
2022/06/07 04:14:10;;;;;;;3.00;1.77;;;;;;;15.11;64.74;99714.66;5110660;28;20067;-54
2022/06/07 04:16:54;;;;;;;7.38;2.78;;;;;;;15.09;64.71;99706.00;5110157;28;20568;-55
2022/06/07 04:19:40;;;;;;;3.72;2.30;;;;;;;15.11;64.46;99710.31;5110622;28;20047;-55
2022/06/07 04:22:26;;;;;;;6.45;2.20;;;;;;;15.11;64.48;99712.94;5110165;28;20069;-55
2022/06/07 04:25:11;;;;;;;2.45;2.20;;;;;;;15.12;64.57;99705.94;5111236;28;20104;-55
2022/06/07 04:27:55;;;;;;;3.72;2.45;;;;;;;15.11;64.77;99715.53;5111035;28;20062;-55
2022/06/07 04:30:47;;;;;;;5.28;2.35;;;;;;;15.11;64.55;99709.44;5110999;28;20462;-57
2022/06/07 04:33:31;;;;;;;9.57;2.65;;;;;;;15.11;64.51;99697.28;5110770;28;20051;-57
2022/06/07 04:36:21;;;;;;;6.65;2.45;;;;;;;15.10;64.62;99702.53;5110703;28;20074;-56
2022/06/07 04:39:06;;;;;;;5.43;2.28;;;;;;;15.10;64.73;99716.41;5110155;28;20062;-54
2022/06/07 04:41:50;;;;;;;4.28;1.95;;;;;;;15.09;64.61;99716.44;5109856;28;20046;-55
2022/06/07 04:44:37;;;;;;;5.65;2.53;;;;;;;15.07;64.50;99709.50;5110860;28;20151;-55
2022/06/07 04:47:21;;;;;;;3.40;2.75;;;;;;;15.09;64.57;99706.84;5109955;28;20054;-56
2022/06/07 04:50:06;;;;;;;4.00;2.20;;;;;;;15.09;64.75;99711.22;5110406;28;20105;-55
2022/06/07 04:52:50;;;;;;;5.43;3.05;;;;;;;15.08;64.62;99718.16;5109627;28;20039;-55
2022/06/07 04:55:34;;;;;;;3.20;2.38;;;;;;;15.09;64.63;99711.22;5110508;28;20474;-55
2022/06/07 04:58:52;;;;;;;5.35;2.75;;;;;;;15.08;64.72;99718.16;5110624;28;20082;-55
2022/06/07 05:01:39;;;;;;;3.97;2.15;;;;;;;15.10;64.71;99712.97;5109163;28;20101;-55
2022/06/07 05:04:23;;;;;;;4.95;2.55;;;;;;;15.09;64.75;99709.47;5109643;28;20047;-55
2022/06/07 05:07:07;;;;;;;6.13;3.47;;;;;;;15.10;64.54;99712.97;5109010;28;20063;-55
2022/06/07 05:09:51;;;;;;;5.47;2.20;;;;;;;15.09;64.45;99709.47;5110289;28;20047;-54
2022/06/07 05:12:35;;;;;;;6.43;2.85;;;;;;;15.08;64.86;99705.13;5110317;28;20055;-55
2022/06/07 05:15:20;;;;;;;4.20;2.28;;;;;;;15.07;64.83;99711.22;5109197;28;20123;-55
2022/06/07 05:18:07;;;;;;;5.32;2.60;;;;;;;15.07;64.82;99700.78;5106927;28;20093;-55
2022/06/07 05:20:54;;;;;;;5.53;2.58;;;;;;;15.10;64.74;99702.53;5095721;28;20097;-55
2022/06/07 05:23:38;;;;;;;2.65;2.33;;;;;;;15.07;64.68;99699.06;5095355;28;20189;-55
2022/06/07 05:26:27;;;;;;;9.70;2.83;;;;;;;15.10;64.65;99702.53;5096245;28;20629;-55
2022/06/07 05:29:32;;;;;;;7.35;2.33;;;;;;;15.11;64.77;99704.22;5095576;28;20113;-55
2022/06/07 05:32:17;;;;;;;3.67;2.17;;;;;;;15.11;64.31;99714.66;5095625;28;20039;-54
2022/06/07 05:35:00;;;;;;;;;;;;;;;15.11;64.68;99715.53;5095399;28;20513;-55
2022/06/07 05:37:47;;;;;;;3.33;2.83;;;;;;;15.11;64.70;99718.16;5096476;28;19981;-55
2022/06/07 05:40:31;;;;;;;4.18;2.22;;;;;;;15.13;64.74;99719.00;5096154;28;20042;-55
2022/06/07 05:43:15;;;;;;;;;;;;;;;15.12;64.67;99716.41;5095588;28;20093;-55
2022/06/07 05:46:00;;;;;;;8.23;2.42;;;;;;;15.12;64.85;99725.09;5094960;28;19919;-55
2022/06/07 05:48:44;;;;;;;5.28;2.33;;;;;;;15.14;64.91;99722.47;5095173;28;20419;-54
2022/06/07 05:51:28;;;;;;;4.97;2.63;;;;;;;15.17;65.08;99731.16;5095897;28;20051;-55
2022/06/07 05:54:13;;;;;;;2.80;2.50;;;;;;;15.17;65.05;99730.28;5095651;28;20055;-55
2022/06/07 05:56:58;;;;;;;6.55;2.83;;;;;;;15.18;65.19;99730.25;5095081;28;20090;-55
2022/06/07 05:59:42;;;;;;;6.82;3.10;;;;;;;15.18;65.07;99726.81;5095789;28;20055;-54
2022/06/07 06:02:26;;;;;;;4.07;2.60;;;;;;;15.18;65.04;99729.41;5095896;28;20051;-55
2022/06/07 06:05:10;;;;;;;6.18;2.75;;;;;;;15.18;64.84;99735.47;5095426;28;20522;-55
2022/06/07 06:11:06;;;;;;;4.47;2.30;;;;;;;15.17;65.21;99739.00;5095109;28;20399;-55
2022/06/07 06:13:50;;;;;;;6.95;2.60;;;;;;;15.19;65.02;99745.03;5095545;28;20065;-55
2022/06/07 06:16:37;;;;;;;7.18;2.75;;;;;;;15.20;64.89;99740.72;5094353;28;20139;-55
2022/06/07 06:19:21;;;;;;;4.35;2.72;;;;;;;15.21;64.91;99735.47;5094865;28;20140;-55
2022/06/07 06:22:05;;;;;;;6.22;2.75;;;;;;;15.22;64.91;99742.41;5095387;28;20184;-54
2022/06/07 06:24:49;;;;;;;4.18;2.60;;;;;;;15.23;65.07;99735.47;5095488;28;20132;-55
2022/06/07 06:27:37;;;;;;;5.32;2.85;;;;;;;15.26;65.13;99734.56;5094769;28;20464;-55
2022/06/07 06:30:21;;;;;;;5.85;3.00;;;;;;;15.24;64.93;99721.53;5094156;28;20047;-55
2022/06/07 06:33:07;;;;;;;4.95;3.00;;;;;;;15.23;64.91;99723.28;5094723;28;20101;-54
2022/06/07 06:35:53;;;;;;;6.68;3.17;;;;;;;15.25;65.01;99722.38;5094781;28;20060;-54
2022/06/07 06:38:38;;;;;;;4.28;3.00;;;;;;;15.22;64.77;99718.91;5093991;28;20062;-55
2022/06/07 06:41:26;;;;;;;;;;;;;;;15.20;64.76;99727.66;5095496;28;20414;-55
2022/06/07 06:44:11;;;;;;;4.03;2.50;;;;;;;15.20;64.86;99730.28;5093915;28;19942;-55
2022/06/07 06:46:55;;;;;;;;;;;;;;;15.19;64.74;99733.75;5094446;28;20071;-55
2022/06/07 06:49:45;;;;;;;9.20;2.92;;;;;;;15.19;64.65;99734.59;5093614;28;19930;-55
2022/06/07 06:52:29;;;;;;;7.65;3.15;;;;;;;15.19;64.78;99739.81;5094440;28;20498;-55
2022/06/07 06:55:13;;;;;;;4.95;3.25;;;;;;;15.19;64.80;99737.22;5094447;28;20415;-55
2022/06/07 06:57:57;;;;;;;3.67;2.80;;;;;;;15.20;64.98;99745.94;5094388;28;20055;-55
2022/06/07 07:00:41;;;;;;;;;;;;;;;15.20;64.97;99745.94;5093588;28;20516;-55
2022/06/07 07:03:25;;;;;;;4.57;2.88;;;;;;;15.19;64.90;99750.25;5094606;28;19981;-55
2022/06/07 07:06:11;;;;;;;;;;;;;;;15.19;64.94;99739.81;5094613;28;20047;-55
2022/06/07 07:08:58;;;;;;;4.07;2.35;;;;;;;15.19;64.94;99739.81;5094008;28;20065;-54
2022/06/07 07:11:46;;;;;;;3.17;2.25;;;;;;;15.20;64.81;99732.88;5093846;28;20047;-55
2022/06/07 07:14:33;;;;;;;6.07;2.65;;;;;;;15.20;64.95;99735.50;5093325;28;20081;-55
2022/06/07 07:17:20;;;;;;;5.15;3.05;;;;;;;15.19;64.60;99737.22;5093078;28;20047;-54
2022/06/07 07:20:05;;;;;;;5.75;2.45;;;;;;;15.21;64.86;99738.06;5093313;28;20039;-55
2022/06/07 07:22:49;;;;;;;4.68;2.35;;;;;;;15.22;64.73;99745.03;5093816;28;20418;-55
2022/06/07 07:25:39;;;;;;;6.95;2.85;;;;;;;15.25;64.84;99743.28;5094460;28;20070;-54
2022/06/07 07:28:29;;;;;;;6.28;2.55;;;;;;;15.26;64.80;99734.56;5092996;28;20131;-55
2022/06/07 07:31:21;;;;;;;3.28;2.00;;;;;;;15.26;64.81;99740.63;5092843;28;20047;-54
2022/06/07 07:34:08;;;;;;;6.25;2.90;;;;;;;15.28;64.68;99749.31;5093251;28;20477;-54
2022/06/07 07:36:53;;;;;;;6.22;2.20;;;;;;;15.30;64.97;99749.34;5094134;28;20105;-54
2022/06/07 07:39:37;;;;;;;3.60;2.70;;;;;;;15.29;65.15;99745.84;5092973;28;20047;-56
2022/06/07 07:42:27;;;;;;;5.45;2.65;;;;;;;15.32;65.04;99744.97;5093904;28;20043;-55
2022/06/07 07:45:12;;;;;;;5.70;2.88;;;;;;;15.32;65.26;99738.00;5094167;28;20112;-54
2022/06/07 07:47:59;;;;;;;7.85;3.53;;;;;;;15.34;65.00;99740.56;5093857;28;20051;-54
2022/06/07 07:50:43;;;;;;;5.75;3.55;;;;;;;15.35;64.84;99750.16;5093592;28;20124;-55
2022/06/07 07:53:27;;;;;;;5.47;2.55;;;;;;;15.34;65.10;99735.34;5093828;28;20043;-55
2022/06/07 07:56:11;;;;;;;6.80;2.60;;;;;;;15.35;65.10;99735.34;5093484;28;20051;-55
2022/06/07 07:58:59;;;;;;;5.13;2.60;;;;;;;15.36;65.09;99731.00;5094001;28;20051;-54
2022/06/07 08:01:43;;;;;;;6.45;2.85;;;;;;;15.36;64.98;99723.16;5093458;28;20186;-55
2022/06/07 08:04:27;;;;;;;4.70;2.35;;;;;;;15.36;65.14;99729.25;5093160;28;20127;-55
2022/06/07 08:07:11;;;;;;;7.38;2.60;;;;;;;15.36;65.07;99729.25;5092990;28;20120;-55
2022/06/07 08:09:55;;;;;;;5.60;2.20;;;;;;;15.37;65.29;99727.50;5093110;28;20047;-55
2022/06/07 08:12:39;;;;;;;3.30;2.05;;;;;;;15.38;64.89;99721.41;5093712;28;20074;-55
2022/06/07 08:15:26;;;;;;;5.40;2.25;;;;;;;15.37;64.94;99717.94;5093590;28;20124;-55
2022/06/07 08:18:10;;;;;;;5.30;2.13;;;;;;;15.39;65.26;99725.75;5093646;28;20525;-55
2022/06/07 08:20:59;;;;;;;2.78;2.45;;;;;;;15.40;65.11;99716.19;5092817;28;20047;-55
2022/06/07 08:23:43;;;;;;;6.85;2.00;;;;;;;15.40;65.21;99719.66;5092225;28;20093;-56
2022/06/07 08:26:27;;;;;;;3.83;2.45;;;;;;;15.42;65.16;99712.66;5093603;28;20078;-55
2022/06/07 08:29:12;;;;;;;6.25;2.30;;;;;;;15.43;65.03;99719.63;5092548;28;20075;-55
2022/06/07 08:31:56;;;;;;;4.07;2.30;;;;;;;15.45;65.10;99715.25;5092761;28;20055;-55
2022/06/07 08:37:44;;;;;;;6.68;2.33;;;;;;;15.48;65.21;99714.34;5093372;28;20189;-55
2022/06/07 08:40:44;;;;;;;5.68;2.28;;;;;;;15.49;65.19;99711.72;5092449;28;20065;-55
2022/06/07 08:43:29;;;;;;;6.15;2.15;;;;;;;15.56;65.29;99709.06;5092257;28;20132;-55
2022/06/07 08:46:16;;;;;;;6.97;2.13;;;;;;;15.58;65.19;99700.31;5093414;28;20117;-55
2022/06/07 08:49:00;;;;;;;2.78;2.10;;;;;;;15.61;65.31;99704.66;5092239;28;20098;-55
2022/06/07 08:51:56;;;;;;;4.47;2.72;;;;;;;15.62;65.17;99696.81;5093429;28;20039;-55
2022/06/07 08:54:41;;;;;;;3.90;2.50;;;;;;;15.63;65.19;99706.38;5095079;28;20537;-55
2022/06/07 08:57:37;;;;;;;4.43;2.40;;;;;;;15.64;65.27;99707.25;5096822;28;20135;-55
2022/06/07 09:00:31;;;;;;;3.88;2.30;;;;;;;15.64;65.29;99707.25;5096112;28;20085;-55
2022/06/07 09:03:36;;;;;;;3.42;2.03;;;;;;;15.65;65.12;99703.72;5096754;28;20042;-55
2022/06/07 09:06:22;;;;;;;;;;;;;;;15.64;65.37;99699.41;5095681;28;20568;-55
2022/06/07 09:09:07;;;;;;;3.88;2.10;;;;;;;15.64;65.42;99700.25;5096233;28;19926;-55
2022/06/07 09:12:09;;;;;;;5.38;2.45;;;;;;;15.66;65.49;99706.34;5095605;28;20113;-56
2022/06/07 09:15:11;;;;;;;5.28;3.17;;;;;;;15.71;65.54;99703.69;5096733;28;20043;-57
2022/06/07 09:17:58;;;;;;;4.60;2.17;;;;;;;15.73;65.33;99704.53;5095458;28;20055;-56
2022/06/07 09:20:49;;;;;;;6.00;2.58;;;;;;;15.72;65.65;99694.97;5096511;28;20046;-56
2022/06/07 09:23:46;;;;;;;7.47;2.72;;;;;;;15.72;65.62;99694.97;5095379;28;20431;-56
2022/06/07 09:26:37;;;;;;;4.03;2.67;;;;;;;15.71;65.66;99695.84;5095418;28;20090;-56
2022/06/07 09:29:23;;;;;;;4.07;2.25;;;;;;;15.73;65.69;99694.09;5095118;28;20043;-56
2022/06/07 09:32:17;;;;;;;4.75;3.00;;;;;;;15.73;65.76;99694.09;5096063;28;20043;-56
2022/06/07 09:35:08;;;;;;;5.47;2.42;;;;;;;15.73;65.80;99695.81;5095574;28;20090;-56
2022/06/07 09:38:02;;;;;;;5.25;2.65;;;;;;;15.73;65.68;99694.09;5095972;28;20097;-56
2022/06/07 09:41:00;;;;;;;3.78;2.20;;;;;;;15.73;65.69;99695.81;5095511;28;20066;-56
2022/06/07 09:43:45;;;;;;;5.93;2.40;;;;;;;15.72;65.80;99688.88;5094957;28;20044;-56
2022/06/07 09:46:30;;;;;;;7.45;2.67;;;;;;;15.71;65.71;99689.75;5095822;28;20085;-56
2022/06/07 09:49:34;;;;;;;7.10;2.47;;;;;;;15.72;66.02;99701.94;5094662;28;20043;-56
2022/06/07 09:52:25;;;;;;;5.75;2.85;;;;;;;15.72;65.91;99692.34;5095375;28;20051;-56
2022/06/07 09:55:20;;;;;;;6.43;3.03;;;;;;;15.72;66.23;99697.56;5094827;28;20097;-55
2022/06/07 09:58:27;;;;;;;3.88;2.45;;;;;;;15.73;66.05;99694.09;5095733;28;20125;-56
2022/06/07 10:01:23;;;;;;;5.25;2.13;;;;;;;15.73;66.30;99699.31;5094830;28;20050;-56
2022/06/07 10:04:22;;;;;;;4.60;3.15;;;;;;;15.72;66.34;99692.34;5094591;28;20066;-56
2022/06/07 10:07:19;;;;;;;5.07;3.17;;;;;;;15.74;66.69;99700.16;5095178;28;20572;-56
2022/06/07 10:10:26;;;;;;;6.22;3.42;;;;;;;15.74;66.76;99706.25;5094750;28;20529;-56
2022/06/07 10:13:23;;;;;;;5.53;3.60;;;;;;;15.75;66.85;99715.84;5094270;28;20047;-56
2022/06/07 10:16:26;;;;;;;6.75;3.75;;;;;;;15.75;67.22;99713.22;5095381;28;20059;-56
2022/06/07 10:19:24;;;;;;;8.45;3.90;;;;;;;15.75;67.21;99710.59;5094201;28;20051;-56
2022/06/07 10:22:32;;;;;;;6.88;2.72;;;;;;;15.73;67.15;99707.16;5094029;28;20074;-56
2022/06/07 10:25:25;;;;;;;6.35;3.00;;;;;;;15.75;67.25;99699.28;5094130;28;20047;-56
2022/06/07 10:28:54;;;;;;;7.68;3.00;;;;;;;15.75;67.38;99701.88;5093980;28;20127;-56
2022/06/07 10:32:05;;;;;;;6.00;2.70;;;;;;;15.75;67.35;99704.50;5094086;28;20510;-56
2022/06/07 10:35:02;;;;;;;9.23;3.35;;;;;;;15.74;67.36;99692.31;5094955;28;20566;-56
2022/06/07 10:38:06;;;;;;;8.13;3.05;;;;;;;15.73;67.41;99694.09;5094342;28;20122;-56
2022/06/07 10:41:11;;;;;;;4.30;2.80;;;;;;;15.71;67.37;99682.78;5093734;28;20059;-55
2022/06/07 10:43:59;;;;;;;4.93;3.10;;;;;;;15.72;67.42;99679.28;5093880;28;20075;-54
2022/06/07 10:46:47;;;;;;;6.78;3.00;;;;;;;15.72;67.50;99678.44;5094033;28;20454;-55
2022/06/07 10:49:50;;;;;;;5.22;3.25;;;;;;;15.72;67.71;99676.66;5094116;28;20135;-54
2022/06/07 10:52:48;;;;;;;8.45;3.17;;;;;;;15.72;67.72;99675.81;5094002;28;20050;-55
2022/06/07 10:55:41;;;;;;;4.80;2.67;;;;;;;15.71;67.53;99679.31;5093516;28;20518;-55
2022/06/07 10:58:31;;;;;;;4.68;2.70;;;;;;;15.72;67.94;99673.22;5093803;28;20054;-55
2022/06/07 11:01:27;;;;;;;4.15;2.63;;;;;;;15.72;67.67;99678.44;5093130;28;20050;-55
2022/06/07 11:10:47;;;;;;;4.27;2.93;;;;;;;15.71;67.66;99674.94;5094319;28;20557;-55
2022/06/07 11:13:54;;;;;;;4.20;3.00;;;;;;;15.70;67.82;99667.97;5093202;28;20039;-54
2022/06/07 11:16:41;;;;;;;6.25;2.63;;;;;;;15.70;67.82;99667.97;5093774;28;20443;-55
2022/06/07 11:19:26;;;;;;;8.70;3.70;;;;;;;15.71;68.17;99668.88;5094015;28;20054;-55
2022/06/07 11:22:14;;;;;;;;;;;;;;;15.70;68.05;99667.97;5093600;28;20086;-55
2022/06/07 11:25:22;;;;;;;4.97;3.40;;;;;;;15.71;68.16;99661.88;5093197;28;19920;-55
2022/06/07 11:28:15;;;;;;;5.00;3.05;;;;;;;15.72;67.99;99668.84;5093200;28;20070;-55
2022/06/07 11:31:02;;;;;;;4.22;3.20;;;;;;;15.72;68.17;99661.00;5093241;28;20406;-55
2022/06/07 11:33:47;;;;;;;4.07;3.03;;;;;;;15.73;68.06;99661.84;5093453;28;20097;-55
2022/06/07 11:36:35;;;;;;;6.25;3.60;;;;;;;15.72;68.24;99666.22;5094237;28;20391;-55
2022/06/07 11:39:30;;;;;;;4.32;3.50;;;;;;;15.74;68.30;99664.47;5093862;28;20117;-55
2022/06/07 11:42:14;;;;;;;3.00;2.55;;;;;;;15.74;68.22;99661.84;5092628;28;20098;-54
2022/06/07 11:45:02;;;;;;;10.48;3.90;;;;;;;15.74;68.57;99654.00;5092649;28;20119;-55
2022/06/07 11:47:46;;;;;;;5.85;3.03;;;;;;;15.75;68.28;99660.97;5093405;28;20093;-54
2022/06/07 11:50:40;;;;;;;6.72;3.40;;;;;;;15.77;68.25;99660.94;5093040;28;20498;-55
2022/06/07 11:53:29;;;;;;;5.95;3.17;;;;;;;15.77;68.61;99651.38;5092466;28;20147;-55
2022/06/07 11:56:42;;;;;;;5.47;3.38;;;;;;;15.78;68.46;99652.22;5093004;28;20176;-55
2022/06/07 11:59:34;;;;;;;3.85;3.03;;;;;;;15.79;68.33;99653.94;5093635;28;20054;-54
2022/06/07 12:02:24;;;;;;;5.07;3.47;;;;;;;15.80;68.36;99653.06;5092685;28;20050;-54
2022/06/07 12:05:26;;;;;;;5.60;3.63;;;;;;;15.79;68.46;99647.00;5093782;28;20055;-55
2022/06/07 12:08:28;;;;;;;7.18;3.90;;;;;;;15.80;68.37;99648.69;5092989;28;20062;-55
2022/06/07 12:11:23;;;;;;;8.80;3.72;;;;;;;15.80;68.31;99640.84;5092316;28;20082;-56
2022/06/07 12:14:17;;;;;;;;;;;;;;;15.79;68.43;99644.38;5093486;28;20051;-56
2022/06/07 12:17:17;;;;;;;8.85;3.45;;;;;;;15.79;68.62;99635.66;5093256;28;20002;-54
2022/06/07 12:20:02;;;;;;;4.45;3.35;;;;;;;15.79;68.76;99635.66;5092256;28;20419;-55
2022/06/07 12:22:46;;;;;;;5.50;3.58;;;;;;;15.81;68.46;99626.91;5093235;28;20101;-55
2022/06/07 12:25:35;;;;;;;4.35;3.95;;;;;;;15.81;68.55;99623.44;5092422;28;20096;-55
2022/06/07 12:28:22;;;;;;;4.57;3.88;;;;;;;15.82;68.56;99626.03;5093878;28;20105;-55
2022/06/07 12:31:25;;;;;;;5.60;3.70;;;;;;;15.83;68.62;99630.38;5096240;28;20046;-57
2022/06/07 12:34:30;;;;;;;6.22;3.38;;;;;;;15.83;68.61;99624.31;5097091;28;20529;-54
2022/06/07 12:37:25;;;;;;;7.15;3.65;;;;;;;15.82;68.66;99615.59;5097343;28;20453;-54
2022/06/07 12:40:31;;;;;;;4.93;3.72;;;;;;;15.84;68.70;99613.81;5096707;28;20105;-54
2022/06/07 12:43:23;;;;;;;5.90;4.00;;;;;;;15.83;68.44;99609.47;5097490;28;20085;-54
2022/06/07 12:46:24;;;;;;;5.05;3.33;;;;;;;15.84;68.57;99615.59;5096317;28;20051;-55
2022/06/07 12:49:20;;;;;;;5.00;3.63;;;;;;;15.84;68.88;99612.97;5096241;28;20101;-54
2022/06/07 12:52:07;;;;;;;7.38;4.80;;;;;;;15.85;68.82;99599.06;5096371;28;20047;-55
2022/06/07 12:54:54;;;;;;;5.68;4.43;;;;;;;15.86;68.73;99602.53;5095976;28;20047;-54
2022/06/07 12:57:55;;;;;;;4.88;4.35;;;;;;;15.84;68.67;99586.84;5096124;28;20096;-54
2022/06/07 13:00:43;;;;;;;4.40;3.72;;;;;;;15.84;68.83;99592.06;5096467;28;20051;-55
2022/06/07 13:03:37;;;;;;;5.03;3.55;;;;;;;15.84;68.65;99613.81;5096164;28;20075;-55
2022/06/07 13:06:21;;;;;;;5.05;3.78;;;;;;;15.84;68.94;99611.22;5095424;28;20047;-55
2022/06/07 13:09:19;;;;;;;5.57;4.10;;;;;;;15.89;68.67;99605.09;5095993;28;20042;-54
2022/06/07 13:12:04;;;;;;;4.50;3.47;;;;;;;15.89;69.03;99589.41;5096745;28;20586;-54
2022/06/07 13:14:49;;;;;;;4.93;4.43;;;;;;;15.90;69.06;99592.00;5096673;28;20423;-55
2022/06/07 13:17:39;;;;;;;9.82;4.45;;;;;;;15.90;68.99;99588.53;5096055;28;20172;-55
2022/06/07 13:20:33;;;;;;;5.40;4.10;;;;;;;15.91;68.93;99583.28;5096505;28;20415;-55
2022/06/07 13:23:40;;;;;;;5.15;3.83;;;;;;;15.91;68.91;99574.59;5095312;28;20109;-54
2022/06/07 13:26:40;;;;;;;5.78;3.47;;;;;;;15.91;68.83;99572.81;5096487;28;20522;-56
2022/06/07 13:29:33;;;;;;;6.40;5.03;;;;;;;15.92;69.12;99571.94;5095620;28;20392;-55
2022/06/07 13:32:26;;;;;;;6.57;4.70;;;;;;;15.93;68.79;99583.28;5095215;28;20102;-55
2022/06/07 13:35:22;;;;;;;5.30;3.72;;;;;;;15.92;68.93;99579.78;5095035;28;20146;-54
2022/06/07 13:38:22;;;;;;;4.50;4.07;;;;;;;15.95;68.81;99573.69;5096379;28;20059;-57
2022/06/07 13:41:18;;;;;;;6.53;4.55;;;;;;;15.97;69.23;99561.41;5095108;28;20047;-56
2022/06/07 13:44:08;;;;;;;6.55;3.70;;;;;;;15.97;69.16;99574.50;5095370;28;20075;-56